createdAt,value
2023-05-11T00:01:09.354Z,99633.78
2023-05-11T00:03:37.110Z,99629.50
2023-05-11T00:06:04.631Z,99618.16
2023-05-11T00:08:31.852Z,99619.16
2023-05-11T00:11:00.783Z,99618.44
2023-05-11T00:13:30.208Z,99608.84
2023-05-11T00:15:57.918Z,99613.28
2023-05-11T00:18:25.318Z,99609.69
2023-05-11T00:20:52.553Z,99599.31
2023-05-11T00:23:19.702Z,99604.56
2023-05-11T00:25:46.883Z,99597.59
2023-05-11T00:28:14.039Z,99590.63
2023-05-11T00:30:41.534Z,99594.19
2023-05-11T00:33:08.712Z,99589.88
2023-05-11T00:35:35.972Z,99582.00
2023-05-11T00:38:03.622Z,99583.78
2023-05-11T00:40:34.201Z,99583.91
2023-05-11T00:43:01.357Z,99569.84
2023-05-11T00:45:29.788Z,99562.84
2023-05-11T00:47:57.543Z,99568.69
2023-05-11T00:50:26.507Z,99568.69
2023-05-11T00:52:55.892Z,99559.03
2023-05-11T00:55:25.339Z,99552.78
2023-05-11T00:57:54.916Z,99550.19
2023-05-11T01:00:22.902Z,99553.78
2023-05-11T01:02:51.921Z,99545.97
2023-05-11T01:05:19.451Z,99549.50
2023-05-11T01:08:12.846Z,99542.53
2023-05-11T01:10:55.617Z,99560.00
2023-05-11T01:13:40.399Z,99561.81
2023-05-11T01:16:21.213Z,99560.91
2023-05-11T01:19:06.169Z,99555.56
2023-05-11T01:21:34.713Z,99558.13
2023-05-11T01:24:53.119Z,99556.09
2023-05-11T01:28:33.187Z,99562.16
2023-05-11T01:31:15.461Z,99562.03
2023-05-11T01:34:23.725Z,99558.59
2023-05-11T01:37:01.349Z,99556.91
2023-05-11T01:39:41.207Z,99551.66
2023-05-11T01:42:11.117Z,99556.84
2023-05-11T01:44:47.412Z,99551.53
2023-05-11T01:47:16.209Z,99546.41
2023-05-11T01:49:45.578Z,99539.44
2023-05-11T01:52:16.328Z,99546.50
2023-05-11T01:54:44.967Z,99544.84
2023-05-11T01:57:13.669Z,99544.06
2023-05-11T01:59:41.251Z,99544.94
2023-05-11T02:02:10.113Z,99542.97
2023-05-11T02:04:39.451Z,99545.53
2023-05-11T02:07:11.076Z,99547.25
2023-05-11T02:09:39.663Z,99542.16
2023-05-11T02:12:11.901Z,99537.94
2023-05-11T02:14:41.714Z,99531.09
2023-05-11T02:17:10.810Z,99538.03
2023-05-11T02:19:39.663Z,99537.19
2023-05-11T02:22:08.614Z,99534.56
2023-05-11T02:24:36.754Z,99535.41
2023-05-11T02:27:04.576Z,99537.09
2023-05-11T02:29:32.607Z,99534.47
2023-05-11T02:32:09.533Z,99536.97
2023-05-11T02:34:45.629Z,99533.41
2023-05-11T02:37:24.516Z,99529.09
2023-05-11T02:40:05.179Z,99530.06
2023-05-11T02:42:39.128Z,99530.97
2023-05-11T02:45:13.098Z,99536.22
2023-05-11T02:47:48.329Z,99527.53
2023-05-11T02:50:24.324Z,99524.06
2023-05-11T02:52:59.479Z,99528.41
2023-05-11T02:55:29.112Z,99523.97
2023-05-11T02:57:56.433Z,99519.34
2023-05-11T03:00:24.333Z,99521.19
2023-05-11T03:02:51.699Z,99521.34
2023-05-11T03:05:21.471Z,99513.56
2023-05-11T03:07:54.929Z,99517.03
2023-05-11T03:10:23.099Z,99514.38
2023-05-11T03:12:50.672Z,99517.75
2023-05-11T03:15:21.000Z,99515.03
2023-05-11T03:17:52.171Z,99523.75
2023-05-11T03:20:22.385Z,99514.22
2023-05-11T03:22:51.200Z,99513.31
2023-05-11T03:25:20.147Z,99509.78
2023-05-11T03:27:50.744Z,99509.88
2023-05-11T03:30:22.137Z,99500.19
2023-05-11T03:32:51.399Z,99501.19
2023-05-11T03:35:18.789Z,99504.63
2023-05-11T03:37:48.915Z,99502.97
2023-05-11T03:40:19.868Z,99505.59
2023-05-11T03:42:56.558Z,99501.16
2023-05-11T03:45:28.432Z,99509.63
2023-05-11T03:47:57.407Z,99508.75
2023-05-11T03:50:28.593Z,99511.31
2023-05-11T03:52:56.287Z,99507.78
2023-05-11T03:55:24.131Z,99510.47
2023-05-11T03:57:51.805Z,99512.84
2023-05-11T04:00:19.414Z,99497.91
2023-05-11T04:02:47.515Z,99504.06
2023-05-11T04:05:14.915Z,99502.41
2023-05-11T04:07:45.477Z,99503.38
2023-05-11T04:10:13.026Z,99504.19
2023-05-11T04:12:43.376Z,99502.56
2023-05-11T04:15:11.228Z,99501.69
2023-05-11T04:17:38.413Z,99495.63
2023-05-11T04:20:07.005Z,99497.41
2023-05-11T04:22:34.257Z,99502.75
2023-05-11T04:25:03.300Z,99498.31
2023-05-11T04:27:35.991Z,99502.66
2023-05-11T04:30:06.111Z,99495.84
2023-05-11T04:32:36.983Z,99504.75
2023-05-11T04:35:04.797Z,99503.94
2023-05-11T04:37:35.259Z,99498.69
2023-05-11T04:40:07.300Z,99496.16
2023-05-11T04:42:39.689Z,99504.09
2023-05-11T04:45:11.300Z,99501.50
2023-05-11T04:47:38.658Z,99496.16
2023-05-11T04:50:07.994Z,99505.97
2023-05-11T04:52:36.439Z,99494.78
2023-05-11T04:55:04.520Z,99489.56
2023-05-11T04:57:33.246Z,99495.81
2023-05-11T05:00:01.502Z,99498.66
2023-05-11T05:02:29.742Z,99497.03
2023-05-11T05:04:56.947Z,99503.25
2023-05-11T05:07:35.119Z,99496.22
2023-05-11T05:10:03.911Z,99493.69
2023-05-11T05:12:31.774Z,99492.13
2023-05-11T05:14:59.451Z,99496.53
2023-05-11T05:17:34.218Z,99493.81
2023-05-11T05:20:03.936Z,99497.47
2023-05-11T05:22:31.804Z,99492.31
2023-05-11T05:24:59.578Z,99499.41
2023-05-11T05:27:27.167Z,99487.16
2023-05-11T05:29:55.256Z,99493.41
2023-05-11T05:32:25.003Z,99479.59
2023-05-11T05:34:52.198Z,99485.06
2023-05-11T05:37:20.325Z,99482.69
2023-05-11T05:39:48.527Z,99483.78
2023-05-11T05:42:16.353Z,99480.34
2023-05-11T05:44:43.572Z,99476.75
2023-05-11T05:47:11.332Z,99475.44
2023-05-11T05:49:38.709Z,99467.38
2023-05-11T05:52:09.255Z,99471.28
2023-05-11T05:54:36.766Z,99476.38
2023-05-11T05:57:04.128Z,99466.63
2023-05-11T05:59:31.292Z,99470.94
2023-05-11T06:01:59.460Z,99472.25
2023-05-11T06:04:26.684Z,99469.44
2023-05-11T06:06:55.922Z,99474.97
2023-05-11T06:09:23.604Z,99473.44
2023-05-11T06:11:50.901Z,99476.13
2023-05-11T06:14:18.982Z,99466.78
2023-05-11T06:16:46.599Z,99467.03
2023-05-11T06:19:13.910Z,99465.59
2023-05-11T06:21:42.898Z,99464.06
2023-05-11T06:24:10.308Z,99460.25
2023-05-11T06:26:39.363Z,99452.84
2023-05-11T06:29:07.893Z,99459.47
2023-05-11T06:31:38.389Z,99449.41
2023-05-11T06:34:06.104Z,99446.16
2023-05-11T06:36:34.313Z,99457.09
2023-05-11T06:39:01.765Z,99458.00
2023-05-11T06:41:32.358Z,99455.34
2023-05-11T06:44:00.682Z,99457.44
2023-05-11T06:46:36.059Z,99453.28
2023-05-11T06:49:03.434Z,99453.75
2023-05-11T06:51:30.772Z,99449.53
2023-05-11T06:53:57.980Z,99446.22
2023-05-11T06:56:25.231Z,99443.75
2023-05-11T06:58:52.406Z,99445.72
2023-05-11T07:01:19.554Z,99441.63
2023-05-11T07:03:48.957Z,99445.28
2023-05-11T07:06:16.176Z,99445.41
2023-05-11T07:08:43.438Z,99438.31
2023-05-11T07:11:12.918Z,99447.19
2023-05-11T07:13:40.092Z,99451.00
2023-05-11T07:16:07.686Z,99434.72
2023-05-11T07:18:34.928Z,99444.72
2023-05-11T07:21:02.164Z,99448.50
2023-05-11T07:23:29.410Z,99442.41
2023-05-11T07:25:58.118Z,99442.66
2023-05-11T07:28:25.341Z,99427.03
2023-05-11T07:30:52.576Z,99421.72
2023-05-11T07:33:19.717Z,99426.47
2023-05-11T07:35:46.920Z,99431.97
2023-05-11T07:38:14.105Z,99429.66
2023-05-11T07:40:41.281Z,99435.91
2023-05-11T07:43:08.458Z,99416.81
2023-05-11T07:45:35.680Z,99418.00
2023-05-11T07:48:02.959Z,99418.44
2023-05-11T07:50:30.264Z,99421.53
2023-05-11T07:52:57.429Z,99411.53
2023-05-11T07:55:30.072Z,99417.16
2023-05-11T07:58:00.263Z,99418.97
2023-05-11T08:00:27.610Z,99425.44
2023-05-11T08:02:54.957Z,99419.00
2023-05-11T08:05:22.412Z,99419.09
2023-05-11T08:07:49.719Z,99418.41
2023-05-11T08:10:17.097Z,99418.69
2023-05-11T08:12:44.289Z,99416.06
2023-05-11T08:15:11.856Z,99412.94
2023-05-11T08:17:39.076Z,99417.34
2023-05-11T08:20:07.756Z,99407.47
2023-05-11T08:22:35.216Z,99406.16
2023-05-11T08:25:03.749Z,99405.31
2023-05-11T08:27:30.969Z,99402.66
2023-05-11T08:29:58.522Z,99397.78
2023-05-11T08:32:27.131Z,99403.91
2023-05-11T08:34:54.464Z,99401.19
2023-05-11T08:37:22.828Z,99394.13
2023-05-11T08:39:49.863Z,99389.56
2023-05-11T08:42:17.682Z,99397.81
2023-05-11T08:44:45.493Z,99385.09
2023-05-11T08:49:43.282Z,99397.28
2023-05-11T08:52:12.938Z,99397.78
2023-05-11T08:54:40.374Z,99389.56
2023-05-11T08:57:07.750Z,99383.44
2023-05-11T08:59:35.129Z,99392.41
2023-05-11T09:02:04.467Z,99393.84
2023-05-11T09:04:32.817Z,99401.69
2023-05-11T09:07:00.152Z,99394.47
2023-05-11T09:09:27.428Z,99397.22
2023-05-11T09:11:55.228Z,99394.56
2023-05-11T09:14:27.040Z,99392.09
2023-05-11T09:16:54.727Z,99397.13
2023-05-11T09:19:22.080Z,99392.13
2023-05-11T09:21:49.377Z,99396.38
2023-05-11T09:24:16.578Z,99396.56
2023-05-11T09:26:43.764Z,99390.69
2023-05-11T09:29:11.633Z,99390.88
2023-05-11T09:31:43.520Z,99393.69
2023-05-11T09:34:17.475Z,99393.91
2023-05-11T09:36:49.731Z,99385.31
2023-05-11T09:41:50.802Z,99392.53
2023-05-11T09:44:19.501Z,99384.44
2023-05-11T09:46:47.434Z,99381.44
2023-05-11T09:49:14.797Z,99379.84
2023-05-11T09:51:41.976Z,99375.78
2023-05-11T09:54:22.324Z,99388.34
2023-05-11T09:56:56.722Z,99381.31
2023-05-11T09:59:41.733Z,99373.66
2023-05-11T10:02:26.599Z,99370.16
2023-05-11T10:05:00.754Z,99370.91
2023-05-11T10:07:35.774Z,99377.88
2023-05-11T10:10:11.598Z,99369.31
2023-05-11T10:12:40.350Z,99370.13
2023-05-11T10:15:10.697Z,99364.56
2023-05-11T10:17:38.296Z,99356.94
2023-05-11T10:20:06.928Z,99363.16
2023-05-11T10:22:35.510Z,99362.28
2023-05-11T10:25:06.068Z,99355.19
2023-05-11T10:27:33.459Z,99356.03
2023-05-11T10:30:02.304Z,99363.53
2023-05-11T10:32:31.545Z,99365.53
2023-05-11T10:35:00.229Z,99357.72
2023-05-11T10:37:28.484Z,99354.25
2023-05-11T10:39:57.257Z,99357.53
2023-05-11T10:42:56.414Z,99358.22
2023-05-11T10:45:45.263Z,99352.53
2023-05-11T10:48:46.316Z,99351.91
2023-05-11T10:52:00.061Z,99352.13
2023-05-11T10:54:52.202Z,99346.06
2023-05-11T10:57:51.642Z,99347.59
2023-05-11T11:00:54.562Z,99340.72
2023-05-11T11:03:21.888Z,99350.53
2023-05-11T11:05:51.596Z,99346.31
2023-05-11T11:08:18.854Z,99341.88
2023-05-11T11:10:46.492Z,99340.16
2023-05-11T11:13:20.257Z,99343.69
2023-05-11T11:15:56.570Z,99341.00
2023-05-11T11:18:34.969Z,99341.72
2023-05-11T11:21:05.004Z,99338.97
2023-05-11T11:23:51.130Z,99332.94
2023-05-11T11:26:50.499Z,99333.56
2023-05-11T11:29:17.886Z,99325.66
2023-05-11T11:31:45.394Z,99324.75
2023-05-11T11:34:39.097Z,99323.31
2023-05-11T11:37:13.359Z,99310.06
2023-05-11T11:39:43.554Z,99313.63
2023-05-11T11:42:19.106Z,99311.78
2023-05-11T11:44:46.986Z,99304.75
2023-05-11T11:47:23.248Z,99307.41
2023-05-11T11:49:55.463Z,99309.16
2023-05-11T11:52:28.717Z,99303.78
2023-05-11T11:54:59.771Z,99298.72
2023-05-11T11:57:30.043Z,99287.94
2023-05-11T11:59:57.239Z,99293.69
2023-05-11T12:02:26.481Z,99301.88
2023-05-11T12:04:58.417Z,99301.19
2023-05-11T12:07:27.656Z,99298.38
2023-05-11T12:09:55.893Z,99302.09
2023-05-11T12:12:23.161Z,99292.88
2023-05-11T12:14:50.427Z,99290.78
2023-05-11T12:17:29.781Z,99302.81
2023-05-11T12:20:16.908Z,99298.53
2023-05-11T12:22:46.850Z,99301.16
2023-05-11T12:25:19.008Z,99298.53
2023-05-11T12:27:58.529Z,99300.34
2023-05-11T12:30:32.421Z,99297.59
2023-05-11T12:33:04.215Z,99298.53
2023-05-11T12:35:34.166Z,99306.44
2023-05-11T12:38:02.948Z,99305.66
2023-05-11T12:40:31.740Z,99306.50
2023-05-11T12:43:00.935Z,99292.28
2023-05-11T12:45:29.335Z,99296.19
2023-05-11T12:47:58.691Z,99297.94
2023-05-11T12:50:26.078Z,99298.31
2023-05-11T12:52:53.383Z,99295.53
2023-05-11T12:55:29.571Z,99291.03
2023-05-11T12:58:16.183Z,99296.53
2023-05-11T13:00:56.831Z,99289.59
2023-05-11T13:03:34.032Z,99288.75
2023-05-11T13:06:13.378Z,99294.00
2023-05-11T13:08:46.530Z,99297.63
2023-05-11T13:11:23.122Z,99294.97
2023-05-11T13:13:56.106Z,99300.34
2023-05-11T13:16:33.696Z,99299.44
2023-05-11T13:19:10.883Z,99299.44
2023-05-11T13:21:38.820Z,99290.56
2023-05-11T13:24:06.574Z,99287.91
2023-05-11T13:26:34.313Z,99284.41
2023-05-11T13:29:10.883Z,99287.06
2023-05-11T13:31:47.703Z,99293.22
2023-05-11T13:34:15.426Z,99302.06
2023-05-11T13:36:43.160Z,99307.25
2023-05-11T13:39:11.043Z,99300.94
2023-05-11T13:41:38.364Z,99294.59
2023-05-11T13:44:06.279Z,99301.16
2023-05-11T13:46:33.514Z,99297.66
2023-05-11T13:49:00.933Z,99296.78
2023-05-11T13:51:28.053Z,99301.00
2023-05-11T13:53:55.307Z,99293.50
2023-05-11T13:56:22.490Z,99287.66
2023-05-11T13:58:49.987Z,99295.13
2023-05-11T14:01:17.201Z,99292.53
2023-05-11T14:03:44.524Z,99283.19
2023-05-11T14:06:11.760Z,99277.06
2023-05-11T14:08:38.888Z,99262.25
2023-05-11T14:11:06.246Z,99258.59
2023-05-11T14:13:33.451Z,99241.97
2023-05-11T14:16:01.490Z,99228.84
2023-05-11T14:18:29.088Z,99232.81
2023-05-11T14:20:56.915Z,99236.66
2023-05-11T14:23:24.121Z,99225.97
2023-05-11T14:25:51.306Z,99228.06
2023-05-11T14:28:18.487Z,99221.44
2023-05-11T14:30:45.734Z,99219.16
2023-05-11T14:33:12.990Z,99221.56
2023-05-11T14:35:40.372Z,99227.94
2023-05-11T14:38:07.561Z,99224.03
2023-05-11T14:40:34.742Z,99231.03
2023-05-11T14:43:02.575Z,99232.41
2023-05-11T14:45:29.851Z,99227.75
2023-05-11T14:47:57.161Z,99231.56
2023-05-11T14:50:24.399Z,99234.91
2023-05-11T14:52:51.820Z,99243.47
2023-05-11T14:55:19.174Z,99246.94
2023-05-11T14:57:46.479Z,99245.53
2023-05-11T15:00:14.714Z,99242.28
2023-05-11T15:02:41.940Z,99238.47
2023-05-11T15:05:10.846Z,99246.59
2023-05-11T15:07:39.260Z,99248.16
2023-05-11T15:10:07.868Z,99256.44
2023-05-11T15:12:35.057Z,99256.94
2023-05-11T15:15:03.478Z,99257.81
2023-05-11T15:17:31.194Z,99263.03
2023-05-11T15:19:58.371Z,99264.97
2023-05-11T15:22:25.592Z,99262.44
2023-05-11T15:24:52.815Z,99266.13
2023-05-11T15:27:20.135Z,99270.66
2023-05-11T15:29:47.657Z,99267.88
2023-05-11T15:32:15.547Z,99273.13
2023-05-11T15:34:58.066Z,99276.66
2023-05-11T15:37:26.217Z,99290.84
2023-05-11T15:39:53.463Z,99282.97
2023-05-11T15:42:20.918Z,99286.50
2023-05-11T15:44:48.323Z,99283.81
2023-05-11T15:47:15.489Z,99296.06
2023-05-11T15:49:42.677Z,99289.78
2023-05-11T15:52:12.274Z,99299.44
2023-05-11T15:54:39.546Z,99302.66
2023-05-11T15:57:06.752Z,99301.00
2023-05-11T15:59:34.835Z,99299.03
2023-05-11T16:02:02.088Z,99305.06
2023-05-11T16:04:29.262Z,99301.44
2023-05-11T16:06:58.750Z,99315.28
2023-05-11T16:09:26.168Z,99318.00
2023-05-11T16:11:53.361Z,99309.41
2023-05-11T16:14:21.314Z,99319.94
2023-05-11T16:16:49.183Z,99315.34
2023-05-11T16:19:16.477Z,99318.75
2023-05-11T16:21:43.780Z,99319.75
2023-05-11T16:24:10.965Z,99329.38
2023-05-11T16:26:42.557Z,99330.22
2023-05-11T16:29:09.814Z,99333.75
2023-05-11T16:31:37.063Z,99339.75
2023-05-11T16:34:04.234Z,99345.69
2023-05-11T16:36:31.498Z,99344.09
2023-05-11T16:38:58.816Z,99344.31
2023-05-11T16:41:28.593Z,99348.81
2023-05-11T16:43:56.248Z,99347.88
2023-05-11T16:46:23.454Z,99350.47
2023-05-11T16:48:50.744Z,99344.22
2023-05-11T16:51:20.663Z,99341.59
2023-05-11T16:53:47.865Z,99337.19
2023-05-11T16:56:15.780Z,99338.00
2023-05-11T16:58:43.540Z,99333.53
2023-05-11T17:01:11.114Z,99330.88
2023-05-11T17:03:39.808Z,99330.88
2023-05-11T17:06:07.500Z,99333.50
2023-05-11T17:08:34.794Z,99340.50
2023-05-11T17:11:01.980Z,99347.50
2023-05-11T17:13:29.154Z,99342.13
2023-05-11T17:15:57.219Z,99349.00
2023-05-11T17:18:24.891Z,99354.13
2023-05-11T17:20:56.091Z,99358.38
2023-05-11T17:23:24.695Z,99359.19
2023-05-11T17:25:54.878Z,99366.28
2023-05-11T17:28:22.178Z,99364.56
2023-05-11T17:30:52.786Z,99367.19
2023-05-11T17:33:20.394Z,99366.19
2023-05-11T17:35:48.189Z,99369.56
2023-05-11T17:38:15.803Z,99367.59
2023-05-11T17:40:43.095Z,99368.41
2023-05-11T17:43:10.227Z,99375.28
2023-05-11T17:45:37.730Z,99382.94
2023-05-11T17:48:05.100Z,99386.44
2023-05-11T17:50:33.309Z,99377.66
2023-05-11T17:53:02.917Z,99373.47
2023-05-11T17:55:30.411Z,99377.97
2023-05-11T17:57:58.336Z,99377.88
2023-05-11T18:00:27.724Z,99386.56
2023-05-11T18:02:55.595Z,99384.81
2023-05-11T18:05:28.113Z,99387.47
2023-05-11T18:08:07.775Z,99391.81
2023-05-11T18:10:36.830Z,99390.00
2023-05-11T18:13:11.290Z,99389.03
2023-05-11T18:15:38.635Z,99397.94
2023-05-11T18:18:07.229Z,99397.94
2023-05-11T18:20:38.987Z,99405.69
2023-05-11T18:23:06.303Z,99413.38
2023-05-11T18:25:34.308Z,99408.88
2023-05-11T18:28:04.253Z,99403.69
2023-05-11T18:30:35.694Z,99402.03
2023-05-11T18:33:03.211Z,99408.19
2023-05-11T18:35:30.519Z,99410.06
2023-05-11T18:37:59.462Z,99415.41
2023-05-11T18:40:27.243Z,99414.44
2023-05-11T18:42:54.593Z,99418.06
2023-05-11T18:45:22.096Z,99416.25
2023-05-11T18:47:50.067Z,99424.22
2023-05-11T18:50:17.508Z,99422.63
2023-05-11T18:52:44.941Z,99427.88
2023-05-11T18:55:12.142Z,99426.06
2023-05-11T18:57:40.493Z,99434.72
2023-05-11T19:00:09.944Z,99427.56
2023-05-11T19:02:38.334Z,99437.03
2023-05-11T19:05:06.914Z,99434.22
2023-05-11T19:07:34.212Z,99435.09
2023-05-11T19:10:01.507Z,99436.78
2023-05-11T19:12:29.038Z,99440.25
2023-05-11T19:14:56.347Z,99441.09
2023-05-11T19:17:24.229Z,99440.88
2023-05-11T19:19:52.134Z,99448.75
2023-05-11T19:22:21.285Z,99444.22
2023-05-11T19:24:48.488Z,99451.19
2023-05-11T19:27:15.917Z,99455.38
2023-05-11T19:29:43.084Z,99453.53
2023-05-11T19:32:10.357Z,99460.47
2023-05-11T19:34:37.473Z,99476.16
2023-05-11T19:37:04.851Z,99474.25
2023-05-11T19:39:32.115Z,99486.56
2023-05-11T19:42:00.870Z,99489.13
2023-05-11T19:44:32.729Z,99493.41
2023-05-11T19:47:00.074Z,99500.47
2023-05-11T19:49:28.645Z,99512.00
2023-05-11T19:51:56.097Z,99522.50
2023-05-11T19:54:23.258Z,99532.97
2023-05-11T19:56:50.434Z,99530.28
2023-05-11T19:59:17.656Z,99537.22
2023-05-11T20:01:45.280Z,99545.72
2023-05-11T20:04:14.605Z,99545.50
2023-05-11T20:06:41.938Z,99543.53
2023-05-11T20:09:11.826Z,99551.38
2023-05-11T20:11:39.227Z,99552.19
2023-05-11T20:14:06.582Z,99560.19
2023-05-11T20:16:33.992Z,99568.13
2023-05-11T20:19:01.415Z,99568.91
2023-05-11T20:21:28.929Z,99565.38
2023-05-11T20:23:56.591Z,99570.44
2023-05-11T20:26:27.019Z,99559.00
2023-05-11T20:28:54.908Z,99565.19
2023-05-11T20:31:22.259Z,99560.81
2023-05-11T20:36:19.890Z,99563.38
2023-05-11T20:38:47.244Z,99577.41
2023-05-11T20:41:14.387Z,99582.56
2023-05-11T20:43:41.685Z,99582.56
2023-05-11T20:46:11.320Z,99576.53
2023-05-11T20:48:42.822Z,99582.66
2023-05-11T20:51:11.860Z,99582.66
2023-05-11T20:53:39.109Z,99581.75
2023-05-11T20:56:06.704Z,99591.41
2023-05-11T20:58:33.968Z,99593.97
2023-05-11T21:01:01.232Z,99595.81
2023-05-11T21:03:28.664Z,99592.22
2023-05-11T21:05:56.533Z,99589.59
2023-05-11T21:08:23.750Z,99592.84
2023-05-11T21:10:54.101Z,99603.56
2023-05-11T21:13:21.228Z,99595.41
2023-05-11T21:15:48.384Z,99594.53
2023-05-11T21:18:15.676Z,99600.84
2023-05-11T21:20:43.324Z,99604.41
2023-05-11T21:23:10.464Z,99610.22
2023-05-11T21:25:37.638Z,99616.91
2023-05-11T21:28:05.674Z,99618.63
2023-05-11T21:30:33.009Z,99611.44
2023-05-11T21:33:00.341Z,99619.38
2023-05-11T21:35:27.570Z,99615.13
2023-05-11T21:37:54.712Z,99612.41
2023-05-11T21:40:22.129Z,99613.22
2023-05-11T21:42:49.469Z,99608.97
2023-05-11T21:45:16.684Z,99609.03
2023-05-11T21:47:43.907Z,99607.25
2023-05-11T21:50:12.111Z,99609.72
2023-05-11T21:52:41.394Z,99608.81
2023-05-11T21:55:12.146Z,99617.47
2023-05-11T21:57:39.299Z,99608.56
2023-05-11T22:00:09.232Z,99609.38
2023-05-11T22:02:37.737Z,99606.81
2023-05-11T22:05:05.953Z,99606.66
2023-05-11T22:07:33.146Z,99606.66
2023-05-11T22:10:00.457Z,99616.16
2023-05-11T22:12:27.605Z,99621.19
2023-05-11T22:14:55.295Z,99615.81
2023-05-11T22:17:22.910Z,99625.41
2023-05-11T22:19:50.268Z,99624.66
2023-05-11T22:22:17.454Z,99623.75
2023-05-11T22:24:44.581Z,99637.03
2023-05-11T22:27:15.467Z,99624.84
2023-05-11T22:29:43.434Z,99633.41
2023-05-11T22:32:11.887Z,99630.53
2023-05-11T22:34:39.068Z,99628.75
2023-05-11T22:37:08.323Z,99630.56
2023-05-11T22:39:35.510Z,99634.16
2023-05-11T22:42:03.415Z,99624.28
2023-05-11T22:44:31.934Z,99622.53
2023-05-11T22:46:59.803Z,99626.88
2023-05-11T22:49:28.248Z,99619.00
2023-05-11T22:51:58.575Z,99620.75
2023-05-11T22:54:27.158Z,99620.75
2023-05-11T22:56:54.471Z,99629.69
2023-05-11T22:59:22.105Z,99620.88
2023-05-11T23:01:49.474Z,99619.09
2023-05-11T23:04:16.739Z,99617.38
2023-05-11T23:06:43.887Z,99615.63
2023-05-11T23:09:11.476Z,99619.00
2023-05-11T23:11:38.638Z,99622.34
2023-05-11T23:14:08.275Z,99614.41
2023-05-11T23:16:35.669Z,99619.59
2023-05-11T23:19:02.920Z,99620.47
2023-05-11T23:21:30.177Z,99623.03
2023-05-11T23:23:59.618Z,99624.75
2023-05-11T23:26:31.214Z,99625.72
2023-05-11T23:28:58.411Z,99624.75
2023-05-11T23:31:27.709Z,99630.91
2023-05-11T23:33:55.322Z,99633.53
2023-05-11T23:36:22.836Z,99629.94
2023-05-11T23:38:50.166Z,99630.84
2023-05-11T23:41:19.731Z,99632.06
2023-05-11T23:43:46.953Z,99641.00
2023-05-11T23:46:17.001Z,99637.47
2023-05-11T23:48:44.282Z,99633.91
2023-05-11T23:51:19.032Z,99627.66
2023-05-11T23:53:46.575Z,99625.88
2023-05-11T23:56:13.831Z,99623.31
2023-05-11T23:58:41.439Z,99620.78
